METAR & TAF

RJTT 241330Z 13005KT 9999 BKN035 BKN/// 22/19 Q1015 NOSIG
RJTT 241300Z 14005KT 9999 FEW035 BKN050 BKN/// 22/19 Q1015 NOSIG
RJTT 241230Z 13007KT 9999 SCT030 BKN040 BKN/// 22/18 Q1015 NOSIG
RJTT 241200Z 14005KT 9999 SCT035 BKN045 BKN/// 22/18 Q1015 NOSIG RMK 3SC035 6SC045 A2999
RJTT 241130Z 13005KT 9999 FEW020 BKN035 BKN/// 22/19 Q1015 NOSIG
RJTT 241100Z 15008KT 9999 FEW020 SCT035 BKN/// 22/18 Q1015 NOSIG
RJTT 241030Z 15007KT 9999 FEW020 BKN/// 22/18 Q1015 NOSIG RMK 1CU020 A3000
RJTT 241000Z 16008KT 9999 FEW020 BKN035 BKN/// 24/18 Q1015 NOSIG
RJTT 240930Z 17008KT 9999 FEW020 BKN035 BKN/// 24/19 Q1015 NOSIG
RJTT 240900Z 18009KT 9999 FEW020 SCT035 BKN/// 24/18 Q1014 NOSIG RMK 1CU020 4SC035 A2997

TAF RJTT 241105Z 2412/2518 12006KT 9999 FEW020 SCT030
  BECMG 2419/2421 36006KT
  BECMG 2500/2503 10005KT
  BECMG 2503/2506 18010KT
  BECMG 2512/2515 08016KT
  TEMPO 2512/2515 3000 SHRA BR FEW006 BKN008